sensor_id;sensor_type;location;lat;lon;timestamp;P1;durP1;ratioP1;P2;durP2;ratioP2
46391;SDS011;32098;49.448;7.904;2023-08-01T00:00:11;7.10;;;4.35;;
46391;SDS011;32098;49.448;7.904;2023-08-01T00:02:38;8.43;;;4.15;;
46391;SDS011;32098;49.448;7.904;2023-08-01T00:05:05;6.72;;;3.97;;
46391;SDS011;32098;49.448;7.904;2023-08-01T00:07:32;5.47;;;3.65;;
46391;SDS011;32098;49.448;7.904;2023-08-01T00:10:03;8.93;;;4.20;;
46391;SDS011;32098;49.448;7.904;2023-08-01T00:12:30;6.40;;;3.83;;
46391;SDS011;32098;49.448;7.904;2023-08-01T00:14:57;5.53;;;3.70;;
46391;SDS011;32098;49.448;7.904;2023-08-01T00:17:23;7.10;;;4.10;;
46391;SDS011;32098;49.448;7.904;2023-08-01T00:19:50;7.78;;;4.85;;
46391;SDS011;32098;49.448;7.904;2023-08-01T00:22:16;7.32;;;3.97;;
46391;SDS011;32098;49.448;7.904;2023-08-01T00:24:43;6.57;;;4.28;;
46391;SDS011;32098;49.448;7.904;2023-08-01T00:27:10;8.85;;;4.10;;
46391;SDS011;32098;49.448;7.904;2023-08-01T00:29:36;7.72;;;4.10;;
46391;SDS011;32098;49.448;7.904;2023-08-01T00:32:03;6.55;;;4.28;;
46391;SDS011;32098;49.448;7.904;2023-08-01T00:34:30;6.93;;;4.00;;
46391;SDS011;32098;49.448;7.904;2023-08-01T00:36:57;6.40;;;3.85;;
46391;SDS011;32098;49.448;7.904;2023-08-01T00:39:24;7.63;;;4.07;;
46391;SDS011;32098;49.448;7.904;2023-08-01T00:41:50;7.85;;;3.92;;
46391;SDS011;32098;49.448;7.904;2023-08-01T00:44:17;5.38;;;3.60;;
46391;SDS011;32098;49.448;7.904;2023-08-01T00:46:44;6.55;;;3.80;;
46391;SDS011;32098;49.448;7.904;2023-08-01T00:49:11;9.35;;;3.95;;
46391;SDS011;32098;49.448;7.904;2023-08-01T00:51:39;7.40;;;4.32;;
46391;SDS011;32098;49.448;7.904;2023-08-01T00:54:05;5.43;;;3.63;;
46391;SDS011;32098;49.448;7.904;2023-08-01T00:56:32;6.13;;;3.63;;
46391;SDS011;32098;49.448;7.904;2023-08-01T00:59:00;8.40;;;4.32;;
46391;SDS011;32098;49.448;7.904;2023-08-01T01:01:27;6.95;;;4.10;;
46391;SDS011;32098;49.448;7.904;2023-08-01T01:03:54;5.55;;;3.67;;
46391;SDS011;32098;49.448;7.904;2023-08-01T01:06:24;7.10;;;4.20;;
46391;SDS011;32098;49.448;7.904;2023-08-01T01:08:58;7.40;;;4.18;;
46391;SDS011;32098;49.448;7.904;2023-08-01T01:11:24;7.50;;;4.30;;
46391;SDS011;32098;49.448;7.904;2023-08-01T01:13:51;7.57;;;3.90;;
46391;SDS011;32098;49.448;7.904;2023-08-01T01:16:20;6.50;;;4.45;;
46391;SDS011;32098;49.448;7.904;2023-08-01T01:18:47;8.30;;;3.90;;
46391;SDS011;32098;49.448;7.904;2023-08-01T01:21:14;5.95;;;3.88;;
46391;SDS011;32098;49.448;7.904;2023-08-01T01:23:40;8.75;;;4.43;;
46391;SDS011;32098;49.448;7.904;2023-08-01T01:26:08;7.10;;;4.45;;
46391;SDS011;32098;49.448;7.904;2023-08-01T01:28:36;6.35;;;4.18;;
46391;SDS011;32098;49.448;7.904;2023-08-01T01:31:03;6.38;;;3.65;;
46391;SDS011;32098;49.448;7.904;2023-08-01T01:33:31;8.90;;;4.10;;
46391;SDS011;32098;49.448;7.904;2023-08-01T01:36:00;9.77;;;4.63;;
46391;SDS011;32098;49.448;7.904;2023-08-01T01:38:27;6.38;;;4.22;;
46391;SDS011;32098;49.448;7.904;2023-08-01T01:40:53;6.97;;;4.03;;
46391;SDS011;32098;49.448;7.904;2023-08-01T01:43:20;6.65;;;3.53;;
46391;SDS011;32098;49.448;7.904;2023-08-01T01:45:46;5.65;;;3.67;;
46391;SDS011;32098;49.448;7.904;2023-08-01T01:48:13;5.63;;;3.83;;
46391;SDS011;32098;49.448;7.904;2023-08-01T01:50:39;5.97;;;3.63;;
46391;SDS011;32098;49.448;7.904;2023-08-01T01:53:06;9.20;;;4.05;;
46391;SDS011;32098;49.448;7.904;2023-08-01T01:55:33;7.20;;;4.00;;
46391;SDS011;32098;49.448;7.904;2023-08-01T01:58:00;5.88;;;3.90;;
46391;SDS011;32098;49.448;7.904;2023-08-01T02:00:27;7.47;;;3.28;;
46391;SDS011;32098;49.448;7.904;2023-08-01T02:02:53;5.75;;;3.80;;
46391;SDS011;32098;49.448;7.904;2023-08-01T02:05:20;6.50;;;3.67;;
46391;SDS011;32098;49.448;7.904;2023-08-01T02:07:47;6.72;;;3.70;;
46391;SDS011;32098;49.448;7.904;2023-08-01T02:10:14;6.30;;;4.13;;
46391;SDS011;32098;49.448;7.904;2023-08-01T02:12:41;5.55;;;3.58;;
46391;SDS011;32098;49.448;7.904;2023-08-01T02:15:08;7.32;;;3.78;;
46391;SDS011;32098;49.448;7.904;2023-08-01T02:17:34;8.05;;;4.30;;
46391;SDS011;32098;49.448;7.904;2023-08-01T02:20:01;4.53;;;3.67;;
46391;SDS011;32098;49.448;7.904;2023-08-01T02:22:29;6.38;;;4.32;;
46391;SDS011;32098;49.448;7.904;2023-08-01T02:24:55;6.15;;;3.72;;
46391;SDS011;32098;49.448;7.904;2023-08-01T02:27:22;6.55;;;3.88;;
46391;SDS011;32098;49.448;7.904;2023-08-01T02:29:48;8.15;;;3.88;;
46391;SDS011;32098;49.448;7.904;2023-08-01T02:32:17;5.00;;;3.97;;
46391;SDS011;32098;49.448;7.904;2023-08-01T02:34:44;9.23;;;4.25;;
46391;SDS011;32098;49.448;7.904;2023-08-01T02:37:10;6.15;;;3.63;;
46391;SDS011;32098;49.448;7.904;2023-08-01T02:39:37;7.63;;;4.15;;
46391;SDS011;32098;49.448;7.904;2023-08-01T02:42:03;5.57;;;3.80;;
46391;SDS011;32098;49.448;7.904;2023-08-01T02:44:30;7.28;;;4.45;;
46391;SDS011;32098;49.448;7.904;2023-08-01T02:46:56;7.05;;;3.50;;
46391;SDS011;32098;49.448;7.904;2023-08-01T02:49:23;7.95;;;4.40;;
46391;SDS011;32098;49.448;7.904;2023-08-01T02:51:49;6.03;;;3.83;;
46391;SDS011;32098;49.448;7.904;2023-08-01T02:54:16;6.45;;;3.78;;
46391;SDS011;32098;49.448;7.904;2023-08-01T02:56:42;5.03;;;3.65;;
46391;SDS011;32098;49.448;7.904;2023-08-01T02:59:09;5.05;;;3.30;;
46391;SDS011;32098;49.448;7.904;2023-08-01T03:01:36;6.25;;;3.78;;
46391;SDS011;32098;49.448;7.904;2023-08-01T03:04:04;6.28;;;3.35;;
46391;SDS011;32098;49.448;7.904;2023-08-01T03:06:32;5.13;;;3.72;;
46391;SDS011;32098;49.448;7.904;2023-08-01T03:08:59;6.28;;;4.18;;
46391;SDS011;32098;49.448;7.904;2023-08-01T03:11:26;7.20;;;4.05;;
46391;SDS011;32098;49.448;7.904;2023-08-01T03:13:53;5.78;;;3.75;;
46391;SDS011;32098;49.448;7.904;2023-08-01T03:16:19;8.10;;;3.83;;
46391;SDS011;32098;49.448;7.904;2023-08-01T03:18:46;6.85;;;3.80;;
46391;SDS011;32098;49.448;7.904;2023-08-01T03:21:12;7.13;;;3.65;;
46391;SDS011;32098;49.448;7.904;2023-08-01T03:23:39;7.32;;;3.75;;
46391;SDS011;32098;49.448;7.904;2023-08-01T03:26:06;6.25;;;3.30;;
46391;SDS011;32098;49.448;7.904;2023-08-01T03:28:33;4.63;;;3.22;;
46391;SDS011;32098;49.448;7.904;2023-08-01T03:31:00;6.18;;;3.53;;
46391;SDS011;32098;49.448;7.904;2023-08-01T03:33:26;6.75;;;3.67;;
46391;SDS011;32098;49.448;7.904;2023-08-01T03:35:53;4.60;;;3.50;;
46391;SDS011;32098;49.448;7.904;2023-08-01T03:38:19;5.63;;;3.88;;
46391;SDS011;32098;49.448;7.904;2023-08-01T03:40:46;5.90;;;3.85;;
46391;SDS011;32098;49.448;7.904;2023-08-01T03:43:13;8.68;;;4.28;;
46391;SDS011;32098;49.448;7.904;2023-08-01T03:45:39;8.30;;;4.05;;
46391;SDS011;32098;49.448;7.904;2023-08-01T03:48:06;6.88;;;4.15;;
46391;SDS011;32098;49.448;7.904;2023-08-01T03:50:32;8.50;;;4.45;;
46391;SDS011;32098;49.448;7.904;2023-08-01T03:52:59;8.68;;;4.60;;
46391;SDS011;32098;49.448;7.904;2023-08-01T03:55:25;6.07;;;3.70;;
46391;SDS011;32098;49.448;7.904;2023-08-01T03:57:52;5.80;;;4.20;;
46391;SDS011;32098;49.448;7.904;2023-08-01T04:00:19;6.38;;;4.20;;
46391;SDS011;32098;49.448;7.904;2023-08-01T04:02:45;4.57;;;3.80;;
46391;SDS011;32098;49.448;7.904;2023-08-01T04:05:16;5.38;;;3.90;;
46391;SDS011;32098;49.448;7.904;2023-08-01T04:07:44;6.20;;;3.83;;
46391;SDS011;32098;49.448;7.904;2023-08-01T04:10:10;5.78;;;3.92;;
46391;SDS011;32098;49.448;7.904;2023-08-01T04:12:37;4.90;;;3.70;;
46391;SDS011;32098;49.448;7.904;2023-08-01T04:15:04;4.75;;;3.50;;
46391;SDS011;32098;49.448;7.904;2023-08-01T04:17:31;5.47;;;3.42;;
46391;SDS011;32098;49.448;7.904;2023-08-01T04:19:58;5.18;;;3.50;;
46391;SDS011;32098;49.448;7.904;2023-08-01T04:22:24;6.53;;;4.47;;
46391;SDS011;32098;49.448;7.904;2023-08-01T04:24:51;7.47;;;5.13;;
46391;SDS011;32098;49.448;7.904;2023-08-01T04:27:17;5.45;;;4.88;;
46391;SDS011;32098;49.448;7.904;2023-08-01T04:29:44;8.07;;;4.95;;
46391;SDS011;32098;49.448;7.904;2023-08-01T04:32:11;6.45;;;5.07;;
46391;SDS011;32098;49.448;7.904;2023-08-01T04:34:40;8.00;;;5.05;;
46391;SDS011;32098;49.448;7.904;2023-08-01T04:37:07;5.85;;;4.82;;
46391;SDS011;32098;49.448;7.904;2023-08-01T04:39:34;8.02;;;5.43;;
46391;SDS011;32098;49.448;7.904;2023-08-01T04:42:01;10.75;;;5.53;;
46391;SDS011;32098;49.448;7.904;2023-08-01T04:44:27;7.63;;;5.35;;
46391;SDS011;32098;49.448;7.904;2023-08-01T04:46:55;7.90;;;5.72;;
46391;SDS011;32098;49.448;7.904;2023-08-01T04:49:22;10.95;;;6.10;;
46391;SDS011;32098;49.448;7.904;2023-08-01T04:51:49;9.82;;;5.45;;
46391;SDS011;32098;49.448;7.904;2023-08-01T04:54:16;8.70;;;5.22;;
46391;SDS011;32098;49.448;7.904;2023-08-01T04:56:43;9.40;;;5.88;;
46391;SDS011;32098;49.448;7.904;2023-08-01T04:59:09;7.40;;;5.65;;
46391;SDS011;32098;49.448;7.904;2023-08-01T05:01:36;7.55;;;5.15;;
46391;SDS011;32098;49.448;7.904;2023-08-01T05:04:02;6.88;;;4.90;;
46391;SDS011;32098;49.448;7.904;2023-08-01T05:06:29;8.95;;;5.18;;
46391;SDS011;32098;49.448;7.904;2023-08-01T05:08:56;6.57;;;4.40;;
46391;SDS011;32098;49.448;7.904;2023-08-01T05:11:22;6.10;;;4.50;;
46391;SDS011;32098;49.448;7.904;2023-08-01T05:13:49;6.93;;;4.72;;
46391;SDS011;32098;49.448;7.904;2023-08-01T05:16:15;5.30;;;3.88;;
46391;SDS011;32098;49.448;7.904;2023-08-01T05:18:42;5.40;;;4.15;;
46391;SDS011;32098;49.448;7.904;2023-08-01T05:21:08;5.13;;;3.55;;
46391;SDS011;32098;49.448;7.904;2023-08-01T05:23:35;5.53;;;3.72;;
46391;SDS011;32098;49.448;7.904;2023-08-01T05:26:01;4.18;;;3.25;;
46391;SDS011;32098;49.448;7.904;2023-08-01T05:28:28;4.18;;;3.58;;
46391;SDS011;32098;49.448;7.904;2023-08-01T05:30:55;4.80;;;3.55;;
46391;SDS011;32098;49.448;7.904;2023-08-01T05:33:21;3.83;;;2.85;;
46391;SDS011;32098;49.448;7.904;2023-08-01T05:35:48;4.53;;;2.80;;
46391;SDS011;32098;49.448;7.904;2023-08-01T05:38:15;4.60;;;3.17;;
46391;SDS011;32098;49.448;7.904;2023-08-01T05:40:42;3.15;;;2.70;;
46391;SDS011;32098;49.448;7.904;2023-08-01T05:43:08;3.55;;;2.42;;
46391;SDS011;32098;49.448;7.904;2023-08-01T05:45:35;4.65;;;2.13;;
46391;SDS011;32098;49.448;7.904;2023-08-01T05:48:02;3.00;;;2.30;;
46391;SDS011;32098;49.448;7.904;2023-08-01T05:50:28;3.05;;;2.35;;
46391;SDS011;32098;49.448;7.904;2023-08-01T05:52:55;2.63;;;2.00;;
46391;SDS011;32098;49.448;7.904;2023-08-01T05:55:21;2.97;;;2.25;;
46391;SDS011;32098;49.448;7.904;2023-08-01T05:57:48;1.92;;;1.65;;
46391;SDS011;32098;49.448;7.904;2023-08-01T06:00:18;2.97;;;2.30;;
46391;SDS011;32098;49.448;7.904;2023-08-01T06:02:48;4.90;;;2.00;;
46391;SDS011;32098;49.448;7.904;2023-08-01T06:05:15;3.50;;;2.00;;
46391;SDS011;32098;49.448;7.904;2023-08-01T06:07:42;2.60;;;2.00;;
46391;SDS011;32098;49.448;7.904;2023-08-01T06:10:08;2.05;;;1.55;;
46391;SDS011;32098;49.448;7.904;2023-08-01T06:12:35;2.17;;;1.48;;
46391;SDS011;32098;49.448;7.904;2023-08-01T06:15:02;1.80;;;1.35;;
46391;SDS011;32098;49.448;7.904;2023-08-01T06:17:29;2.15;;;1.30;;
46391;SDS011;32098;49.448;7.904;2023-08-01T06:19:56;2.60;;;1.50;;
46391;SDS011;32098;49.448;7.904;2023-08-01T06:22:22;2.92;;;1.20;;
46391;SDS011;32098;49.448;7.904;2023-08-01T06:24:49;1.40;;;1.00;;
46391;SDS011;32098;49.448;7.904;2023-08-01T06:27:15;1.13;;;0.95;;
46391;SDS011;32098;49.448;7.904;2023-08-01T06:29:44;1.38;;;1.13;;
46391;SDS011;32098;49.448;7.904;2023-08-01T06:32:10;0.90;;;0.70;;
46391;SDS011;32098;49.448;7.904;2023-08-01T06:34:37;0.70;;;0.50;;
46391;SDS011;32098;49.448;7.904;2023-08-01T06:37:04;1.05;;;0.70;;
46391;SDS011;32098;49.448;7.904;2023-08-01T06:39:31;0.50;;;0.50;;
46391;SDS011;32098;49.448;7.904;2023-08-01T06:41:57;1.88;;;0.80;;
46391;SDS011;32098;49.448;7.904;2023-08-01T06:44:24;1.27;;;0.80;;
46391;SDS011;32098;49.448;7.904;2023-08-01T06:46:50;2.40;;;0.52;;
46391;SDS011;32098;49.448;7.904;2023-08-01T06:49:17;1.40;;;0.47;;
46391;SDS011;32098;49.448;7.904;2023-08-01T06:51:43;0.68;;;0.50;;
46391;SDS011;32098;49.448;7.904;2023-08-01T06:54:10;1.33;;;0.75;;
46391;SDS011;32098;49.448;7.904;2023-08-01T06:56:36;0.80;;;0.60;;
46391;SDS011;32098;49.448;7.904;2023-08-01T06:59:03;1.20;;;0.70;;
46391;SDS011;32098;49.448;7.904;2023-08-01T07:01:30;0.52;;;0.50;;
46391;SDS011;32098;49.448;7.904;2023-08-01T07:03:57;1.65;;;0.52;;
46391;SDS011;32098;49.448;7.904;2023-08-01T07:06:23;0.63;;;0.50;;
46391;SDS011;32098;49.448;7.904;2023-08-01T07:08:51;1.00;;;0.50;;
46391;SDS011;32098;49.448;7.904;2023-08-01T07:11:17;0.47;;;0.40;;
46391;SDS011;32098;49.448;7.904;2023-08-01T07:13:45;0.63;;;0.50;;
46391;SDS011;32098;49.448;7.904;2023-08-01T07:16:11;1.45;;;0.50;;
46391;SDS011;32098;49.448;7.904;2023-08-01T07:18:38;0.47;;;0.40;;
46391;SDS011;32098;49.448;7.904;2023-08-01T07:21:05;1.52;;;0.50;;
46391;SDS011;32098;49.448;7.904;2023-08-01T07:23:34;0.77;;;0.43;;
46391;SDS011;32098;49.448;7.904;2023-08-01T07:26:01;0.47;;;0.40;;
46391;SDS011;32098;49.448;7.904;2023-08-01T07:28:28;0.32;;;0.30;;
46391;SDS011;32098;49.448;7.904;2023-08-01T07:31:02;0.65;;;0.52;;
46391;SDS011;32098;49.448;7.904;2023-08-01T07:33:35;1.33;;;0.40;;
46391;SDS011;32098;49.448;7.904;2023-08-01T07:36:02;1.08;;;0.40;;
46391;SDS011;32098;49.448;7.904;2023-08-01T07:38:29;1.90;;;0.50;;
46391;SDS011;32098;49.448;7.904;2023-08-01T07:41:01;0.60;;;0.60;;
46391;SDS011;32098;49.448;7.904;2023-08-01T07:43:31;1.13;;;0.73;;
46391;SDS011;32098;49.448;7.904;2023-08-01T07:45:57;0.60;;;0.50;;
46391;SDS011;32098;49.448;7.904;2023-08-01T07:48:25;1.35;;;0.60;;
46391;SDS011;32098;49.448;7.904;2023-08-01T07:50:52;0.50;;;0.50;;
46391;SDS011;32098;49.448;7.904;2023-08-01T07:53:18;0.50;;;0.50;;
46391;SDS011;32098;49.448;7.904;2023-08-01T07:55:45;0.55;;;0.50;;
46391;SDS011;32098;49.448;7.904;2023-08-01T07:58:11;0.77;;;0.60;;
46391;SDS011;32098;49.448;7.904;2023-08-01T08:00:38;0.57;;;0.57;;
46391;SDS011;32098;49.448;7.904;2023-08-01T08:03:05;1.02;;;0.50;;
46391;SDS011;32098;49.448;7.904;2023-08-01T08:05:32;1.67;;;0.60;;
46391;SDS011;32098;49.448;7.904;2023-08-01T08:07:58;1.55;;;0.40;;
46391;SDS011;32098;49.448;7.904;2023-08-01T08:10:25;0.65;;;0.63;;
46391;SDS011;32098;49.448;7.904;2023-08-01T08:12:51;1.42;;;1.20;;
46391;SDS011;32098;49.448;7.904;2023-08-01T08:15:19;2.92;;;0.55;;
46391;SDS011;32098;49.448;7.904;2023-08-01T08:17:46;1.10;;;0.60;;
46391;SDS011;32098;49.448;7.904;2023-08-01T08:20:13;0.65;;;0.60;;
46391;SDS011;32098;49.448;7.904;2023-08-01T08:22:39;1.77;;;0.60;;
46391;SDS011;32098;49.448;7.904;2023-08-01T08:25:06;1.20;;;0.60;;
46391;SDS011;32098;49.448;7.904;2023-08-01T08:27:32;1.23;;;0.80;;
46391;SDS011;32098;49.448;7.904;2023-08-01T08:29:59;2.53;;;0.65;;
46391;SDS011;32098;49.448;7.904;2023-08-01T08:32:26;0.93;;;0.40;;
46391;SDS011;32098;49.448;7.904;2023-08-01T08:34:52;0.40;;;0.40;;
46391;SDS011;32098;49.448;7.904;2023-08-01T08:37:19;0.30;;;0.30;;
46391;SDS011;32098;49.448;7.904;2023-08-01T08:39:46;1.48;;;0.60;;
46391;SDS011;32098;49.448;7.904;2023-08-01T08:42:13;1.05;;;0.50;;
46391;SDS011;32098;49.448;7.904;2023-08-01T08:44:43;1.00;;;0.30;;
46391;SDS011;32098;49.448;7.904;2023-08-01T08:47:10;1.60;;;0.40;;
46391;SDS011;32098;49.448;7.904;2023-08-01T08:49:39;2.20;;;0.73;;
46391;SDS011;32098;49.448;7.904;2023-08-01T08:52:06;1.48;;;0.50;;
46391;SDS011;32098;49.448;7.904;2023-08-01T08:54:35;0.85;;;0.50;;
46391;SDS011;32098;49.448;7.904;2023-08-01T08:57:03;0.88;;;0.57;;
46391;SDS011;32098;49.448;7.904;2023-08-01T08:59:33;1.33;;;0.60;;
46391;SDS011;32098;49.448;7.904;2023-08-01T09:01:59;0.85;;;0.57;;
46391;SDS011;32098;49.448;7.904;2023-08-01T09:04:27;0.60;;;0.43;;
46391;SDS011;32098;49.448;7.904;2023-08-01T09:06:55;1.13;;;0.50;;
46391;SDS011;32098;49.448;7.904;2023-08-01T09:09:26;1.30;;;0.82;;
46391;SDS011;32098;49.448;7.904;2023-08-01T09:11:54;2.38;;;0.50;;
46391;SDS011;32098;49.448;7.904;2023-08-01T09:14:23;0.80;;;0.70;;
46391;SDS011;32098;49.448;7.904;2023-08-01T09:16:50;1.92;;;0.70;;
46391;SDS011;32098;49.448;7.904;2023-08-01T09:19:20;1.02;;;0.80;;
46391;SDS011;32098;49.448;7.904;2023-08-01T09:21:49;1.77;;;0.82;;
46391;SDS011;32098;49.448;7.904;2023-08-01T09:24:17;1.55;;;0.90;;
46391;SDS011;32098;49.448;7.904;2023-08-01T09:26:45;1.75;;;1.00;;
46391;SDS011;32098;49.448;7.904;2023-08-01T09:29:13;0.93;;;0.70;;
46391;SDS011;32098;49.448;7.904;2023-08-01T09:31:45;1.95;;;1.05;;
46391;SDS011;32098;49.448;7.904;2023-08-01T09:34:19;1.10;;;0.80;;
46391;SDS011;32098;49.448;7.904;2023-08-01T09:36:49;2.05;;;1.15;;
46391;SDS011;32098;49.448;7.904;2023-08-01T09:39:18;1.90;;;1.27;;
46391;SDS011;32098;49.448;7.904;2023-08-01T09:41:46;1.13;;;0.93;;
46391;SDS011;32098;49.448;7.904;2023-08-01T09:44:21;1.20;;;0.98;;
46391;SDS011;32098;49.448;7.904;2023-08-01T09:47:00;2.15;;;1.00;;
46391;SDS011;32098;49.448;7.904;2023-08-01T09:49:31;1.17;;;1.08;;
46391;SDS011;32098;49.448;7.904;2023-08-01T09:51:58;0.82;;;0.82;;
46391;SDS011;32098;49.448;7.904;2023-08-01T09:54:25;2.08;;;1.00;;
46391;SDS011;32098;49.448;7.904;2023-08-01T09:56:52;1.95;;;1.00;;
46391;SDS011;32098;49.448;7.904;2023-08-01T09:59:21;1.42;;;0.95;;
46391;SDS011;32098;49.448;7.904;2023-08-01T10:01:50;1.85;;;0.98;;
46391;SDS011;32098;49.448;7.904;2023-08-01T10:04:18;1.35;;;0.93;;
46391;SDS011;32098;49.448;7.904;2023-08-01T10:06:49;1.30;;;1.15;;
46391;SDS011;32098;49.448;7.904;2023-08-01T10:09:21;3.95;;;1.17;;
46391;SDS011;32098;49.448;7.904;2023-08-01T10:11:49;1.27;;;0.77;;
46391;SDS011;32098;49.448;7.904;2023-08-01T10:14:19;2.15;;;0.73;;
46391;SDS011;32098;49.448;7.904;2023-08-01T10:16:46;2.17;;;1.30;;
46391;SDS011;32098;49.448;7.904;2023-08-01T10:19:13;1.40;;;1.20;;
46391;SDS011;32098;49.448;7.904;2023-08-01T10:21:43;3.05;;;1.17;;
46391;SDS011;32098;49.448;7.904;2023-08-01T10:24:11;1.63;;;1.02;;
46391;SDS011;32098;49.448;7.904;2023-08-01T10:26:38;2.70;;;1.20;;
46391;SDS011;32098;49.448;7.904;2023-08-01T10:29:05;1.58;;;1.08;;
46391;SDS011;32098;49.448;7.904;2023-08-01T10:31:32;2.28;;;1.10;;
46391;SDS011;32098;49.448;7.904;2023-08-01T10:34:05;3.92;;;1.30;;
46391;SDS011;32098;49.448;7.904;2023-08-01T10:36:33;1.70;;;1.00;;
46391;SDS011;32098;49.448;7.904;2023-08-01T10:39:00;2.95;;;1.27;;
46391;SDS011;32098;49.448;7.904;2023-08-01T10:41:28;2.72;;;1.35;;
46391;SDS011;32098;49.448;7.904;2023-08-01T10:44:15;2.70;;;1.40;;
46391;SDS011;32098;49.448;7.904;2023-08-01T10:46:49;2.30;;;1.30;;
46391;SDS011;32098;49.448;7.904;2023-08-01T10:49:20;2.40;;;1.48;;
46391;SDS011;32098;49.448;7.904;2023-08-01T10:51:58;2.00;;;1.17;;
46391;SDS011;32098;49.448;7.904;2023-08-01T10:54:25;1.70;;;1.20;;
46391;SDS011;32098;49.448;7.904;2023-08-01T10:56:52;1.95;;;1.30;;
46391;SDS011;32098;49.448;7.904;2023-08-01T10:59:21;2.40;;;1.00;;
46391;SDS011;32098;49.448;7.904;2023-08-01T11:01:49;2.83;;;1.30;;
46391;SDS011;32098;49.448;7.904;2023-08-01T11:04:17;2.05;;;1.33;;
46391;SDS011;32098;49.448;7.904;2023-08-01T11:06:46;3.85;;;1.05;;
46391;SDS011;32098;49.448;7.904;2023-08-01T11:09:17;2.15;;;1.55;;
46391;SDS011;32098;49.448;7.904;2023-08-01T11:11:54;2.15;;;1.48;;
46391;SDS011;32098;49.448;7.904;2023-08-01T11:14:23;5.80;;;1.23;;
46391;SDS011;32098;49.448;7.904;2023-08-01T11:16:56;1.85;;;1.30;;
46391;SDS011;32098;49.448;7.904;2023-08-01T11:19:27;2.45;;;1.38;;
46391;SDS011;32098;49.448;7.904;2023-08-01T11:21:55;3.72;;;1.50;;
46391;SDS011;32098;49.448;7.904;2023-08-01T11:24:24;3.33;;;1.50;;
46391;SDS011;32098;49.448;7.904;2023-08-01T11:26:52;2.40;;;1.30;;
46391;SDS011;32098;49.448;7.904;2023-08-01T11:29:20;4.05;;;1.30;;
46391;SDS011;32098;49.448;7.904;2023-08-01T11:31:57;2.03;;;1.30;;
46391;SDS011;32098;49.448;7.904;2023-08-01T11:34:25;2.70;;;1.30;;
46391;SDS011;32098;49.448;7.904;2023-08-01T11:36:52;4.05;;;1.63;;
46391;SDS011;32098;49.448;7.904;2023-08-01T11:39:18;3.15;;;1.60;;
46391;SDS011;32098;49.448;7.904;2023-08-01T11:41:45;2.67;;;1.50;;
46391;SDS011;32098;49.448;7.904;2023-08-01T11:44:12;3.85;;;1.70;;
46391;SDS011;32098;49.448;7.904;2023-08-01T11:46:39;2.97;;;1.55;;
46391;SDS011;32098;49.448;7.904;2023-08-01T11:49:06;1.65;;;1.45;;
46391;SDS011;32098;49.448;7.904;2023-08-01T11:51:40;2.33;;;1.13;;
46391;SDS011;32098;49.448;7.904;2023-08-01T11:54:11;4.20;;;1.35;;
46391;SDS011;32098;49.448;7.904;2023-08-01T11:56:39;2.88;;;1.40;;
46391;SDS011;32098;49.448;7.904;2023-08-01T11:59:11;2.03;;;1.52;;
46391;SDS011;32098;49.448;7.904;2023-08-01T12:01:40;2.85;;;1.45;;
46391;SDS011;32098;49.448;7.904;2023-08-01T12:04:08;2.13;;;1.40;;
46391;SDS011;32098;49.448;7.904;2023-08-01T12:06:35;1.40;;;1.10;;
46391;SDS011;32098;49.448;7.904;2023-08-01T12:09:08;1.60;;;1.20;;
46391;SDS011;32098;49.448;7.904;2023-08-01T12:11:36;2.67;;;1.20;;
46391;SDS011;32098;49.448;7.904;2023-08-01T12:14:09;3.00;;;1.40;;
46391;SDS011;32098;49.448;7.904;2023-08-01T12:16:38;3.45;;;1.58;;
46391;SDS011;32098;49.448;7.904;2023-08-01T12:19:07;1.25;;;1.13;;
46391;SDS011;32098;49.448;7.904;2023-08-01T12:21:34;3.20;;;1.42;;
46391;SDS011;32098;49.448;7.904;2023-08-01T12:24:02;2.97;;;1.58;;
46391;SDS011;32098;49.448;7.904;2023-08-01T12:26:29;2.80;;;1.23;;
46391;SDS011;32098;49.448;7.904;2023-08-01T12:28:56;2.38;;;1.40;;
46391;SDS011;32098;49.448;7.904;2023-08-01T12:31:22;2.08;;;1.52;;
46391;SDS011;32098;49.448;7.904;2023-08-01T12:33:49;3.45;;;1.85;;
46391;SDS011;32098;49.448;7.904;2023-08-01T12:36:16;2.17;;;1.50;;
46391;SDS011;32098;49.448;7.904;2023-08-01T12:38:42;3.67;;;1.85;;
46391;SDS011;32098;49.448;7.904;2023-08-01T12:41:09;3.28;;;1.70;;
46391;SDS011;32098;49.448;7.904;2023-08-01T12:43:35;2.63;;;1.70;;
46391;SDS011;32098;49.448;7.904;2023-08-01T12:46:02;3.50;;;1.75;;
46391;SDS011;32098;49.448;7.904;2023-08-01T12:48:29;2.95;;;1.20;;
46391;SDS011;32098;49.448;7.904;2023-08-01T12:50:56;3.17;;;1.60;;
46391;SDS011;32098;49.448;7.904;2023-08-01T12:53:23;1.70;;;1.30;;
46391;SDS011;32098;49.448;7.904;2023-08-01T12:55:53;3.40;;;1.60;;
46391;SDS011;32098;49.448;7.904;2023-08-01T12:58:19;3.42;;;1.55;;
46391;SDS011;32098;49.448;7.904;2023-08-01T13:00:46;1.85;;;1.60;;
46391;SDS011;32098;49.448;7.904;2023-08-01T13:03:13;2.92;;;1.40;;
46391;SDS011;32098;49.448;7.904;2023-08-01T13:05:40;3.38;;;1.63;;
46391;SDS011;32098;49.448;7.904;2023-08-01T13:08:08;3.20;;;1.55;;
46391;SDS011;32098;49.448;7.904;2023-08-01T13:10:36;6.25;;;1.38;;
46391;SDS011;32098;49.448;7.904;2023-08-01T13:13:03;2.92;;;1.55;;
46391;SDS011;32098;49.448;7.904;2023-08-01T13:15:30;2.88;;;1.65;;
46391;SDS011;32098;49.448;7.904;2023-08-01T13:17:57;2.45;;;1.30;;
46391;SDS011;32098;49.448;7.904;2023-08-01T13:20:23;2.10;;;1.52;;
46391;SDS011;32098;49.448;7.904;2023-08-01T13:22:53;3.75;;;1.95;;
46391;SDS011;32098;49.448;7.904;2023-08-01T13:25:19;3.55;;;1.50;;
46391;SDS011;32098;49.448;7.904;2023-08-01T13:27:46;2.58;;;1.50;;
46391;SDS011;32098;49.448;7.904;2023-08-01T13:30:12;1.83;;;1.20;;
46391;SDS011;32098;49.448;7.904;2023-08-01T13:32:40;2.70;;;1.58;;
46391;SDS011;32098;49.448;7.904;2023-08-01T13:35:08;2.72;;;1.48;;
46391;SDS011;32098;49.448;7.904;2023-08-01T13:37:34;2.17;;;1.30;;
46391;SDS011;32098;49.448;7.904;2023-08-01T13:40:02;3.78;;;1.40;;
46391;SDS011;32098;49.448;7.904;2023-08-01T13:42:29;3.38;;;1.40;;
46391;SDS011;32098;49.448;7.904;2023-08-01T13:44:56;2.40;;;1.40;;
46391;SDS011;32098;49.448;7.904;2023-08-01T13:47:23;1.55;;;1.40;;
46391;SDS011;32098;49.448;7.904;2023-08-01T13:49:50;2.45;;;1.23;;
46391;SDS011;32098;49.448;7.904;2023-08-01T13:52:17;2.53;;;1.55;;
46391;SDS011;32098;49.448;7.904;2023-08-01T13:54:43;2.60;;;1.38;;
46391;SDS011;32098;49.448;7.904;2023-08-01T13:57:10;2.63;;;1.50;;
46391;SDS011;32098;49.448;7.904;2023-08-01T13:59:36;2.05;;;1.40;;
46391;SDS011;32098;49.448;7.904;2023-08-01T14:02:03;1.92;;;1.40;;
46391;SDS011;32098;49.448;7.904;2023-08-01T14:04:31;2.85;;;1.70;;
46391;SDS011;32098;49.448;7.904;2023-08-01T14:06:58;2.03;;;1.30;;
46391;SDS011;32098;49.448;7.904;2023-08-01T14:09:24;1.63;;;1.27;;
46391;SDS011;32098;49.448;7.904;2023-08-01T14:11:51;3.17;;;1.50;;
46391;SDS011;32098;49.448;7.904;2023-08-01T14:14:17;2.28;;;1.30;;
46391;SDS011;32098;49.448;7.904;2023-08-01T14:16:44;2.60;;;1.05;;
46391;SDS011;32098;49.448;7.904;2023-08-01T14:19:11;2.13;;;1.25;;
46391;SDS011;32098;49.448;7.904;2023-08-01T14:21:37;3.13;;;1.33;;
46391;SDS011;32098;49.448;7.904;2023-08-01T14:24:04;2.55;;;1.20;;
46391;SDS011;32098;49.448;7.904;2023-08-01T14:26:30;1.80;;;1.10;;
46391;SDS011;32098;49.448;7.904;2023-08-01T14:28:57;2.92;;;1.40;;
46391;SDS011;32098;49.448;7.904;2023-08-01T14:31:23;6.72;;;1.83;;
46391;SDS011;32098;49.448;7.904;2023-08-01T14:33:50;1.63;;;1.10;;
46391;SDS011;32098;49.448;7.904;2023-08-01T14:36:16;2.72;;;1.33;;
46391;SDS011;32098;49.448;7.904;2023-08-01T14:38:43;2.97;;;1.33;;
46391;SDS011;32098;49.448;7.904;2023-08-01T14:41:09;1.80;;;1.30;;
46391;SDS011;32098;49.448;7.904;2023-08-01T14:43:55;2.35;;;1.25;;
46391;SDS011;32098;49.448;7.904;2023-08-01T14:46:22;2.65;;;1.45;;
46391;SDS011;32098;49.448;7.904;2023-08-01T14:48:49;2.55;;;1.40;;